Time;durP1;ratioP1;P1;durP2;ratioP2;P2;SDS_P1;SDS_P2;PMS_P1;PMS_P2;Temp;Humidity;BMP_temperature;BMP_pressure;BME280_temperature;BME280_humidity;BME280_pressure;Samples;Min_cycle;Max_cycle;Signal;HPM_P1;HPM_P2
2021/07/13 00:00:35;;;;;;;21.15;15.02;;;20.20;99.90;;;;;;4922176;29;20188;-89
2021/07/13 00:03:02;;;;;;;19.15;14.68;;;20.30;99.90;;;;;;4922519;29;20172;-89
2021/07/13 00:05:28;;;;;;;19.27;14.13;;;20.20;99.90;;;;;;4939171;29;20192;-89
2021/07/13 00:07:55;;;;;;;19.80;15.52;;;20.10;99.90;;;;;;4939596;29;20179;-90
2021/07/13 00:10:25;;;;;;;21.83;14.63;;;20.10;99.90;;;;;;4922299;29;20176;-88
2021/07/13 00:12:53;;;;;;;20.83;15.32;;;20.10;99.90;;;;;;4939638;29;20192;-89
2021/07/13 00:15:42;;;;;;;20.35;16.10;;;20.10;99.90;;;;;;4939119;29;20176;-87
2021/07/13 00:18:10;;;;;;;25.58;15.77;;;20.00;99.90;;;;;;4939667;29;20227;-89
2021/07/13 00:20:36;;;;;;;23.40;15.85;;;20.00;99.90;;;;;;4938682;29;20275;-89
2021/07/13 00:23:02;;;;;;;19.63;15.27;;;20.00;99.90;;;;;;4939490;29;20263;-89
2021/07/13 00:25:29;;;;;;;22.38;15.48;;;20.00;99.90;;;;;;4922249;29;20188;-89
2021/07/13 00:27:55;;;;;;;19.42;14.32;;;20.00;99.90;;;;;;4922128;29;20295;-89
2021/07/13 00:30:22;;;;;;;15.52;13.68;;;20.10;99.90;;;;;;4938784;29;20188;-88
2021/07/13 00:32:49;;;;;;;24.05;14.70;;;20.00;99.90;;;;;;4921824;29;20712;-90
2021/07/13 00:35:16;;;;;;;17.00;14.13;;;20.10;99.90;;;;;;4906113;29;20226;-89
2021/07/13 00:37:42;;;;;;;20.27;14.25;;;20.10;99.90;;;;;;4938660;29;20180;-90
2021/07/13 00:40:11;;;;;;;20.95;15.45;;;20.00;99.90;;;;;;4938865;29;20629;-87
2021/07/13 00:42:37;;;;;;;18.75;14.75;;;20.10;99.90;;;;;;4921859;29;20696;-89
2021/07/13 00:45:04;;;;;;;22.63;14.65;;;20.10;99.90;;;;;;4921635;29;20208;-89
2021/07/13 00:47:30;;;;;;;19.38;14.77;;;20.10;99.90;;;;;;4938368;29;20180;-90
2021/07/13 00:49:58;;;;;;;23.70;15.63;;;20.00;99.90;;;;;;4938586;29;20240;-89
2021/07/13 00:52:24;;;;;;;22.15;15.80;;;20.00;99.90;;;;;;4921291;29;20686;-86
2021/07/13 00:54:50;;;;;;;19.50;15.93;;;20.00;99.90;;;;;;4921753;29;20271;-90
2021/07/13 00:57:18;;;;;;;20.77;14.70;;;19.90;99.90;;;;;;4938948;29;20184;-88
2021/07/13 00:59:44;;;;;;;17.20;14.05;;;19.90;99.90;;;;;;4937802;29;20176;-89
2021/07/13 01:02:12;;;;;;;22.40;14.93;;;19.80;99.90;;;;;;4938205;29;20187;-89
2021/07/13 01:04:41;;;;;;;20.08;15.00;;;19.80;99.90;;;;;;4938085;29;20263;-89
2021/07/13 01:07:11;;;;;;;15.85;13.57;;;19.80;99.90;;;;;;4938394;29;20176;-88
2021/07/13 01:09:36;;;;;;;23.15;14.88;;;19.80;99.90;;;;;;4937654;29;20542;-88
2021/07/13 01:12:16;;;;;;;20.08;15.27;;;19.80;99.90;;;;;;4921242;29;20186;-88
2021/07/13 01:14:52;;;;;;;19.90;14.63;;;19.80;99.90;;;;;;4937711;29;20175;-89
2021/07/13 01:17:28;;;;;;;16.98;14.43;;;19.70;99.90;;;;;;4938305;29;20254;-89
2021/07/13 01:20:44;;;;;;;21.23;15.00;;;19.60;99.90;;;;;;4938278;29;20172;-88
2021/07/13 01:23:24;;;;;;;28.73;16.00;;;19.60;99.90;;;;;;4897926;29;20261;-88
2021/07/13 01:26:23;;;;;;;22.38;15.82;;;19.60;99.90;;;;;;4937805;29;20183;-88
2021/07/13 01:28:52;;;;;;;21.00;15.75;;;19.60;99.90;;;;;;4937554;29;20167;-88
2021/07/13 01:31:19;;;;;;;24.80;15.90;;;19.50;99.90;;;;;;4920904;29;20188;-88
2021/07/13 01:33:52;;;;;;;33.03;17.45;;;19.50;99.90;;;;;;4920942;29;20191;-88
2021/07/13 01:36:30;;;;;;;21.90;16.83;;;19.50;99.90;;;;;;4937982;29;20231;-88
2021/07/13 01:38:59;;;;;;;27.35;16.75;;;19.50;99.90;;;;;;4938275;29;20211;-88
2021/07/13 01:41:27;;;;;;;24.00;18.17;;;19.50;99.90;;;;;;4937282;29;20191;-89
2021/07/13 01:43:54;;;;;;;26.60;18.02;;;19.40;99.90;;;;;;4937601;29;20208;-88
2021/07/13 01:46:22;;;;;;;28.10;19.33;;;19.40;99.90;;;;;;4937441;29;20184;-88
2021/07/13 01:48:49;;;;;;;23.23;17.90;;;19.40;99.90;;;;;;4920187;29;20262;-88
2021/07/13 01:51:16;;;;;;;28.30;19.98;;;19.30;99.90;;;;;;4937561;29;20266;-89
2021/07/13 01:53:43;;;;;;;27.67;18.30;;;19.40;99.90;;;;;;4920481;29;20187;-88
2021/07/13 01:56:10;;;;;;;28.38;19.17;;;19.40;99.90;;;;;;4920452;29;20188;-88
2021/07/13 01:58:37;;;;;;;34.60;19.10;;;19.40;99.90;;;;;;4936891;29;20530;-89
2021/07/13 02:01:17;;;;;;;26.90;20.02;;;19.40;99.90;;;;;;4937558;29;20649;-88
2021/07/13 02:03:44;;;;;;;30.38;19.35;;;19.40;99.90;;;;;;4936873;29;20191;-88
2021/07/13 02:06:11;;;;;;;29.27;20.10;;;19.40;99.90;;;;;;4920523;29;20188;-89
2021/07/13 02:08:43;;;;;;;32.38;20.90;;;19.40;99.90;;;;;;4920030;29;20176;-89
2021/07/13 02:11:10;;;;;;;27.90;20.63;;;19.40;99.90;;;;;;4936804;29;20653;-90
2021/07/13 02:13:37;;;;;;;27.67;21.15;;;19.30;99.90;;;;;;4904253;29;20192;-90
2021/07/13 02:16:06;;;;;;;37.88;23.80;;;19.30;99.90;;;;;;4937407;29;20238;-88
2021/07/13 02:18:32;;;;;;;48.47;27.98;;;19.20;99.90;;;;;;4919763;29;20180;-87
2021/07/13 02:20:58;;;;;;;44.85;29.42;;;19.20;99.90;;;;;;4920168;29;20180;-88
2021/07/13 02:23:24;;;;;;;48.08;29.42;;;19.20;99.90;;;;;;4904166;29;20215;-88
2021/07/13 02:25:55;;;;;;;48.45;30.48;;;19.10;99.90;;;;;;4936653;29;20270;-90
2021/07/13 02:28:36;;;;;;;50.25;32.97;;;19.00;99.90;;;;;;4936729;29;20157;-87
2021/07/13 02:31:11;;;;;;;55.08;34.85;;;19.00;99.90;;;;;;4937088;29;20669;-88
2021/07/13 02:33:51;;;;;;;51.25;33.45;;;19.00;99.90;;;;;;4936272;29;20691;-87
2021/07/13 02:36:20;;;;;;;55.88;33.03;;;19.10;99.90;;;;;;4936974;29;20175;-87
2021/07/13 02:38:47;;;;;;;55.03;34.50;;;19.10;99.90;;;;;;4919382;29;20271;-89
2021/07/13 02:41:18;;;;;;;51.58;33.63;;;19.10;99.90;;;;;;4936738;29;20180;-88
2021/07/13 02:43:45;;;;;;;53.13;34.30;;;19.10;99.90;;;;;;4936342;29;20210;-88
2021/07/13 02:46:11;;;;;;;50.33;33.40;;;19.10;99.90;;;;;;4936637;29;20184;-89
2021/07/13 02:48:38;;;;;;;49.72;34.30;;;19.20;99.90;;;;;;4936049;29;20532;-88
2021/07/13 02:51:05;;;;;;;49.17;34.65;;;19.20;99.90;;;;;;4936462;29;20239;-87
2021/07/13 02:53:32;;;;;;;51.38;34.13;;;19.20;99.90;;;;;;4903946;29;20192;-87
2021/07/13 02:55:59;;;;;;;49.22;33.20;;;19.20;99.90;;;;;;4936312;29;20184;-87
2021/07/13 02:58:27;;;;;;;42.60;31.77;;;19.30;99.90;;;;;;4936594;29;20204;-88
2021/07/13 03:00:52;;;;;;;52.72;32.47;;;19.30;99.90;;;;;;4936155;29;20728;-88
2021/07/13 03:03:22;;;;;;;46.53;32.13;;;19.30;99.90;;;;;;4936042;29;20287;-88
2021/07/13 03:05:49;;;;;;;44.05;29.85;;;19.40;99.90;;;;;;4935973;29;20188;-88
2021/07/13 03:08:19;;;;;;;38.45;26.65;;;19.40;99.90;;;;;;4936049;29;20176;-88
2021/07/13 03:10:45;;;;;;;35.10;25.02;;;19.40;99.90;;;;;;4918899;29;20621;-89
2021/07/13 03:13:11;;;;;;;34.05;25.08;;;19.50;99.90;;;;;;4919171;29;20263;-87
2021/07/13 03:15:37;;;;;;;35.30;24.67;;;19.50;99.90;;;;;;4935874;29;20187;-87
2021/07/13 03:18:03;;;;;;;30.70;22.52;;;19.50;99.90;;;;;;4919278;29;20258;-86
2021/07/13 03:20:30;;;;;;;36.05;23.15;;;19.50;99.90;;;;;;4919510;29;20268;-88
2021/07/13 03:22:56;;;;;;;28.60;20.38;;;19.50;99.90;;;;;;4918366;29;20191;-88
2021/07/13 03:25:30;;;;;;;25.50;19.70;;;19.50;99.90;;;;;;4903305;29;20709;-87
2021/07/13 03:27:57;;;;;;;26.52;19.92;;;19.50;99.90;;;;;;4935491;29;20164;-88
2021/07/13 03:30:23;;;;;;;28.20;20.10;;;19.40;99.90;;;;;;4918716;29;20188;-87
2021/07/13 03:32:52;;;;;;;29.08;20.92;;;19.50;99.90;;;;;;4918822;29;20184;-87
2021/07/13 03:35:20;;;;;;;28.75;20.70;;;19.40;99.90;;;;;;4919128;29;20235;-87
2021/07/13 03:37:48;;;;;;;30.67;22.15;;;19.40;99.90;;;;;;4918878;29;20185;-88
2021/07/13 03:40:14;;;;;;;36.75;23.45;;;19.50;99.90;;;;;;4935963;29;20267;-87
2021/07/13 03:42:41;;;;;;;34.90;23.52;;;19.50;99.90;;;;;;4935796;29;20262;-87
2021/07/13 03:45:08;;;;;;;30.00;23.15;;;19.50;99.90;;;;;;4919097;29;20211;-89
2021/07/13 03:47:35;;;;;;;38.78;24.42;;;19.60;99.90;;;;;;4918787;29;20278;-89
2021/07/13 03:50:01;;;;;;;33.65;22.92;;;19.60;99.90;;;;;;4918418;29;20236;-89
2021/07/13 03:52:27;;;;;;;32.13;24.25;;;19.60;99.90;;;;;;4918968;29;20176;-88
2021/07/13 03:54:52;;;;;;;40.63;24.83;;;19.70;99.90;;;;;;4902772;29;20200;-87
2021/07/13 03:57:18;;;;;;;33.85;23.02;;;19.80;99.90;;;;;;4918623;29;20640;-88
2021/07/13 03:59:44;;;;;;;38.75;23.50;;;19.80;99.90;;;;;;4935413;29;20263;-87
2021/07/13 04:02:09;;;;;;;35.55;22.83;;;19.90;99.90;;;;;;4935776;29;20180;-87
2021/07/13 04:04:35;;;;;;;32.13;22.15;;;20.00;99.90;;;;;;4935379;29;20449;-87
2021/07/13 04:07:03;;;;;;;34.33;23.75;;;20.00;99.90;;;;;;4902544;29;20235;-87
2021/07/13 04:09:29;;;;;;;40.63;23.27;;;20.00;99.90;;;;;;4903257;29;20191;-88
2021/07/13 04:11:54;;;;;;;36.35;22.70;;;20.10;99.90;;;;;;4935584;29;20259;-87
2021/07/13 04:14:20;;;;;;;32.97;21.92;;;20.20;99.90;;;;;;4902620;29;20189;-88
2021/07/13 04:16:46;;;;;;;34.15;21.55;;;20.20;99.90;;;;;;4918181;29;20180;-87
2021/07/13 04:19:12;;;;;;;31.58;21.90;;;20.30;99.90;;;;;;4903041;29;20239;-88
2021/07/13 04:21:37;;;;;;;31.45;22.75;;;20.40;99.90;;;;;;4918415;29;20187;-87
2021/07/13 04:24:03;;;;;;;34.85;22.10;;;20.50;99.90;;;;;;4935123;29;20298;-87
2021/07/13 04:26:29;;;;;;;32.95;21.15;;;20.50;99.90;;;;;;4935159;29;20208;-87
2021/07/13 04:28:54;;;;;;;28.30;21.30;;;20.60;99.90;;;;;;4934805;29;20673;-87
2021/07/13 04:31:20;;;;;;;32.75;21.92;;;20.60;99.90;;;;;;4902748;29;20195;-87
2021/07/13 04:33:47;;;;;;;32.25;22.05;;;20.70;99.90;;;;;;4936979;29;20641;-85
2021/07/13 04:36:12;;;;;;;28.77;21.40;;;20.70;99.90;;;;;;4922282;29;20183;-87
2021/07/13 04:38:38;;;;;;;34.50;20.92;;;20.80;99.90;;;;;;4938656;29;20188;-87
2021/07/13 04:41:04;;;;;;;29.45;18.58;;;21.00;99.90;;;;;;4921701;29;20172;-87
2021/07/13 04:43:29;;;;;;;28.30;18.77;;;21.00;99.90;;;;;;4938521;29;20207;-87
2021/07/13 04:45:55;;;;;;;24.52;19.00;;;20.90;99.90;;;;;;4921587;29;20361;-87
2021/07/13 04:48:21;;;;;;;28.63;19.25;;;21.00;99.90;;;;;;4921629;29;20606;-87
2021/07/13 04:50:46;;;;;;;27.42;18.35;;;21.10;99.90;;;;;;4938513;29;20239;-87
2021/07/13 04:53:12;;;;;;;28.92;16.88;;;21.20;99.90;;;;;;4938772;29;20191;-86
2021/07/13 04:55:37;;;;;;;23.15;16.50;;;21.30;99.90;;;;;;4905923;29;20184;-87
2021/07/13 04:58:03;;;;;;;29.02;17.88;;;21.40;99.90;;;;;;4937972;29;20184;-87
2021/07/13 05:00:29;;;;;;;25.85;16.90;;;21.40;99.90;;;;;;4921392;29;20577;-86
2021/07/13 05:02:55;;;;;;;24.45;16.33;;;21.40;99.90;;;;;;4905336;29;20529;-87
2021/07/13 05:05:20;;;;;;;25.25;17.20;;;21.40;99.90;;;;;;4921240;29;20293;-87
2021/07/13 05:07:47;;;;;;;22.70;16.85;;;21.50;99.90;;;;;;4921471;29;20195;-87
2021/07/13 05:10:15;;;;;;;25.08;16.75;;;21.50;99.90;;;;;;4920788;29;20188;-88
2021/07/13 05:12:41;;;;;;;28.30;16.63;;;21.60;99.90;;;;;;4938257;29;20176;-88
2021/07/13 05:15:09;;;;;;;23.38;15.43;;;21.70;99.90;;;;;;4938215;29;20630;-87
2021/07/13 05:17:36;;;;;;;23.38;16.98;;;21.80;99.90;;;;;;4937745;29;20179;-87
2021/07/13 05:20:05;;;;;;;17.98;14.95;;;21.90;99.90;;;;;;4920035;29;20248;-87
2021/07/13 05:22:30;;;;;;;24.23;15.57;;;22.00;99.90;;;;;;4935041;29;20223;-87
2021/07/13 05:24:56;;;;;;;20.15;15.30;;;22.10;99.90;;;;;;4904836;29;20250;-87
2021/07/13 05:27:23;;;;;;;21.45;15.90;;;22.20;99.90;;;;;;4938057;29;20206;-88
2021/07/13 05:29:49;;;;;;;28.77;15.95;;;22.30;99.90;;;;;;4939157;29;20266;-88
2021/07/13 05:32:14;;;;;;;20.13;14.77;;;22.40;99.90;;;;;;4904722;29;20279;-88
2021/07/13 05:34:42;;;;;;;20.20;14.73;;;22.50;99.90;;;;;;4937643;29;20195;-87
2021/07/13 05:37:08;;;;;;;18.95;14.15;;;22.60;99.90;;;;;;4921055;29;20213;-86
2021/07/13 05:39:33;;;;;;;21.13;13.38;;;22.80;99.90;;;;;;4937852;29;20180;-87
2021/07/13 05:41:59;;;;;;;18.15;13.32;;;22.90;99.90;;;;;;4920470;29;20550;-87
2021/07/13 05:44:25;;;;;;;17.95;12.90;;;23.00;99.90;;;;;;4937761;29;20237;-87
2021/07/13 05:46:51;;;;;;;18.20;13.52;;;23.10;99.90;;;;;;4937284;29;20663;-86
2021/07/13 05:49:16;;;;;;;21.48;13.65;;;23.20;99.90;;;;;;4920209;29;20199;-88
2021/07/13 05:51:43;;;;;;;22.50;14.10;;;23.20;99.90;;;;;;4904879;29;20255;-87
2021/07/13 05:54:09;;;;;;;19.90;12.43;;;23.30;99.90;;;;;;4920406;29;20180;-87
2021/07/13 05:56:35;;;;;;;16.77;12.48;;;23.40;99.90;;;;;;4904823;29;20346;-87
2021/07/13 05:59:00;;;;;;;17.08;11.32;;;23.60;99.90;;;;;;4936882;29;20179;-86
2021/07/13 06:01:26;;;;;;;19.67;11.45;;;23.70;99.90;;;;;;4937465;29;20188;-86
2021/07/13 06:03:53;;;;;;;21.30;11.25;;;23.90;99.90;;;;;;4937260;29;20603;-86
2021/07/13 06:06:19;;;;;;;14.30;11.45;;;24.00;99.90;;;;;;4937003;29;20188;-88
2021/07/13 06:08:45;;;;;;;19.83;11.10;;;24.10;99.90;;;;;;4937321;29;20196;-85
2021/07/13 06:11:10;;;;;;;16.92;10.77;;;24.20;99.90;;;;;;4931464;29;20201;-88
2021/07/13 06:13:36;;;;;;;15.68;10.75;;;24.20;99.90;;;;;;4930960;29;20224;-87
2021/07/13 06:16:02;;;;;;;19.23;12.18;;;24.20;99.90;;;;;;4903594;29;20283;-85
2021/07/13 06:18:27;;;;;;;24.08;11.27;;;24.30;99.90;;;;;;4900808;29;20662;-86
2021/07/13 06:20:53;;;;;;;17.33;11.55;;;24.40;99.90;;;;;;4916147;29;20720;-88
2021/07/13 06:23:18;;;;;;;16.08;11.77;;;24.40;99.90;;;;;;4900810;29;20621;-87
2021/07/13 06:25:44;;;;;;;18.05;11.38;;;24.40;99.90;;;;;;4933677;29;20202;-86
2021/07/13 06:28:11;;;;;;;19.33;10.98;;;24.60;99.90;;;;;;4933614;29;20195;-88
2021/07/13 06:30:36;;;;;;;14.43;10.50;;;24.70;99.90;;;;;;4906576;29;20200;-87
2021/07/13 06:33:03;;;;;;;15.25;11.02;;;24.70;99.90;;;;;;4917443;29;20654;-87
2021/07/13 06:35:28;;;;;;;14.30;10.82;;;24.70;99.90;;;;;;4918921;29;20192;-89
2021/07/13 06:37:54;;;;;;;15.20;11.13;;;24.70;99.90;;;;;;4934120;29;20267;-88
2021/07/13 06:40:20;;;;;;;18.70;11.18;;;24.80;99.90;;;;;;4933681;29;20188;-88
2021/07/13 06:42:45;;;;;;;16.45;11.75;;;24.90;99.90;;;;;;4932686;29;20215;-87
2021/07/13 06:45:12;;;;;;;17.17;11.20;;;25.00;99.90;;;;;;4933394;29;20215;-89
2021/07/13 06:47:37;;;;;;;17.67;11.00;;;25.00;99.90;;;;;;4928117;29;20233;-91
2021/07/13 06:50:05;;;;;;;19.75;11.30;;;25.20;99.90;;;;;;4915075;29;20237;-90
2021/07/13 06:52:31;;;;;;;14.93;10.82;;;25.30;99.90;;;;;;4919555;29;20653;-87
2021/07/13 06:54:57;;;;;;;15.07;10.77;;;25.30;99.90;;;;;;4926817;29;20317;-91
2021/07/13 06:57:23;;;;;;;16.90;9.88;;;25.40;99.90;;;;;;4882308;29;20192;-91
2021/07/13 06:59:49;;;;;;;13.57;11.30;;;25.50;99.90;;;;;;4906691;29;20195;-88
2021/07/13 07:02:15;;;;;;;19.60;12.27;;;25.60;99.90;;;;;;4934051;29;20188;-88
2021/07/13 07:04:40;;;;;;;16.27;11.38;;;25.70;99.90;;;;;;4914746;29;20211;-90
2021/07/13 07:07:06;;;;;;;15.63;11.95;;;25.80;99.90;;;;;;4933307;29;20668;-89
2021/07/13 07:09:32;;;;;;;19.45;12.70;;;25.90;99.90;;;;;;4920246;29;20240;-89
2021/07/13 07:11:57;;;;;;;17.85;11.88;;;25.90;99.90;;;;;;4915150;29;20333;-88
2021/07/13 07:14:23;;;;;;;15.48;11.52;;;26.00;99.90;;;;;;4914696;29;20654;-92
2021/07/13 07:16:49;;;;;;;12.60;10.65;;;26.10;99.90;;;;;;4898351;29;20316;-90
2021/07/13 07:19:14;;;;;;;15.07;11.35;;;26.10;99.90;;;;;;4897793;29;20226;-89
2021/07/13 07:21:40;;;;;;;15.43;12.20;;;26.20;99.90;;;;;;4933525;29;20192;-86
2021/07/13 07:24:05;;;;;;;14.90;10.80;;;26.20;99.90;;;;;;4916333;29;20713;-89
2021/07/13 07:26:31;;;;;;;16.67;11.75;;;26.30;99.90;;;;;;4915115;29;20323;-89
2021/07/13 07:28:57;;;;;;;16.75;11.88;;;26.40;99.90;;;;;;4917793;29;20218;-87
2021/07/13 07:31:22;;;;;;;18.58;11.68;;;26.40;99.90;;;;;;4931891;29;20730;-88
2021/07/13 07:33:48;;;;;;;17.98;11.93;;;26.70;99.90;;;;;;4932628;29;20682;-88
2021/07/13 07:36:14;;;;;;;15.27;11.88;;;26.50;99.90;;;;;;4914862;29;20675;-89
2021/07/13 07:38:40;;;;;;;14.30;10.85;;;26.60;99.90;;;;;;4932082;29;20192;-89
2021/07/13 07:41:06;;;;;;;15.45;11.80;;;26.60;99.90;;;;;;4907281;29;20635;-90
2021/07/13 07:43:32;;;;;;;20.05;11.93;;;26.60;99.90;;;;;;4929542;29;20235;-89
2021/07/13 07:45:58;;;;;;;13.98;11.07;;;26.50;99.90;;;;;;4931156;29;20274;-90
2021/07/13 07:48:24;;;;;;;22.75;14.15;;;26.40;99.90;;;;;;4931662;29;21000;-89
2021/07/13 07:50:50;;;;;;;17.13;12.35;;;26.50;99.90;;;;;;4915085;29;20239;-87
2021/07/13 07:53:15;;;;;;;17.27;12.45;;;26.60;99.90;;;;;;4914161;29;20199;-87
2021/07/13 07:55:43;;;;;;;15.90;12.10;;;26.70;99.90;;;;;;4914532;29;20234;-87
2021/07/13 07:58:09;;;;;;;17.73;11.60;;;26.70;99.90;;;;;;4901057;29;20306;-88
2021/07/13 08:00:35;;;;;;;19.70;10.85;;;26.80;99.90;;;;;;4913215;29;20196;-91
2021/07/13 08:03:00;;;;;;;13.60;11.02;;;26.90;99.90;;;;;;4932588;29;20595;-88
2021/07/13 08:05:26;;;;;;;14.15;10.77;;;27.10;99.90;;;;;;4914675;29;20346;-92
2021/07/13 08:07:53;;;;;;;17.25;12.10;;;27.20;99.90;;;;;;4932390;29;20192;-88
2021/07/13 08:10:19;;;;;;;13.18;10.77;;;27.30;99.90;;;;;;4937659;29;20649;-88
2021/07/13 08:12:45;;;;;;;12.60;11.30;;;27.30;99.90;;;;;;4937876;29;20186;-88
2021/07/13 08:15:12;;;;;;;12.52;10.73;;;27.40;99.90;;;;;;4936841;29;20669;-87
2021/07/13 08:17:41;;;;;;;15.80;11.30;;;27.50;99.90;;;;;;4920314;29;20251;-89
2021/07/13 08:20:13;;;;;;;12.27;11.02;;;27.50;99.90;;;;;;4931652;29;20196;-88
2021/07/13 08:22:43;;;;;;;14.27;11.18;;;27.60;99.90;;;;;;4933405;29;20176;-88
2021/07/13 08:25:09;;;;;;;14.15;10.20;;;27.70;99.90;;;;;;4936372;29;20227;-86
2021/07/13 08:27:35;;;;;;;16.83;9.60;;;27.80;99.90;;;;;;4919783;29;20548;-87
2021/07/13 08:30:00;;;;;;;15.25;10.40;;;27.80;99.90;;;;;;4917070;29;20192;-90
2021/07/13 08:32:26;;;;;;;15.48;9.38;;;27.90;99.90;;;;;;4919654;29;20188;-88
2021/07/13 08:34:52;;;;;;;13.13;9.68;;;28.00;99.90;;;;;;4935608;29;20652;-87
2021/07/13 08:37:20;;;;;;;13.25;10.70;;;28.20;99.90;;;;;;4918427;29;20627;-88
2021/07/13 08:39:47;;;;;;;13.60;9.75;;;27.60;99.90;;;;;;4918954;29;20226;-87
2021/07/13 08:42:13;;;;;;;11.35;9.98;;;28.30;99.90;;;;;;4935354;29;20248;-86
2021/07/13 08:44:39;;;;;;;13.75;9.05;;;28.30;99.90;;;;;;4933808;29;20207;-88
2021/07/13 08:47:04;;;;;;;9.98;8.88;;;28.50;99.90;;;;;;4918898;29;20544;-87
2021/07/13 08:49:30;;;;;;;11.82;9.27;;;28.60;99.90;;;;;;4918819;29;20228;-88
2021/07/13 08:51:56;;;;;;;12.02;9.20;;;28.80;99.90;;;;;;4937347;29;20702;-88
2021/07/13 08:54:21;;;;;;;13.35;8.45;;;28.80;99.90;;;;;;4936869;29;20278;-85
2021/07/13 08:56:47;;;;;;;14.25;8.35;;;29.00;99.90;;;;;;4937379;29;20587;-86
2021/07/13 08:59:13;;;;;;;9.68;8.23;;;29.10;99.90;;;;;;4919999;29;20657;-85
2021/07/13 09:01:38;;;;;;;11.90;9.23;;;29.10;99.90;;;;;;4919986;29;20199;-86
2021/07/13 09:04:06;;;;;;;9.75;8.75;;;29.20;99.90;;;;;;4919437;29;20685;-86
2021/07/13 09:06:52;;;;;;;16.30;8.25;;;29.30;99.90;;;;;;4936830;29;20283;-88
2021/07/13 09:09:23;;;;;;;19.63;8.88;;;29.50;99.90;;;;;;4919792;29;20227;-87
2021/07/13 09:12:11;;;;;;;19.42;8.68;;;29.50;99.90;;;;;;4936863;29;20188;-87
2021/07/13 09:14:52;;;;;;;16.08;8.60;;;29.60;99.90;;;;;;4919022;29;20195;-87
2021/07/13 09:17:44;;;;;;;14.57;8.93;;;29.60;99.90;;;;;;4919334;29;20188;-86
2021/07/13 09:20:17;;;;;;;11.10;8.02;;;29.40;99.90;;;;;;4936459;29;20184;-87
2021/07/13 09:23:06;;;;;;;11.27;8.05;;;29.40;99.90;;;;;;4936255;29;20566;-88
2021/07/13 09:25:44;;;;;;;11.35;8.48;;;29.40;99.90;;;;;;4937696;29;20294;-87
2021/07/13 09:28:28;;;;;;;10.13;7.40;;;29.30;99.90;;;;;;4936163;29;20278;-87
2021/07/13 09:30:59;;;;;;;10.60;7.63;;;29.30;99.90;;;;;;4936371;29;20564;-87
2021/07/13 09:33:27;;;;;;;14.38;7.85;;;29.30;99.90;;;;;;4935922;29;20215;-88
2021/07/13 09:36:08;;;;;;;11.18;7.55;;;29.30;99.90;;;;;;4918910;29;20283;-87
2021/07/13 09:38:53;;;;;;;12.13;7.28;;;29.30;99.90;;;;;;4918873;29;20183;-87
2021/07/13 09:41:22;;;;;;;9.98;7.25;;;29.40;99.90;;;;;;4936054;29;20179;-87
2021/07/13 09:43:52;;;;;;;10.65;7.20;;;29.50;99.90;;;;;;4935646;29;20218;-88
2021/07/13 09:46:47;;;;;;;17.63;7.65;;;29.60;99.90;;;;;;4918926;29;20247;-85
2021/07/13 09:49:26;;;;;;;11.80;7.38;;;29.60;99.90;;;;;;4923567;29;20736;-88
2021/07/13 09:52:05;;;;;;;15.43;8.02;;;29.60;99.90;;;;;;4918696;29;20303;-87
2021/07/13 09:54:34;;;;;;;11.65;7.78;;;29.90;99.90;;;;;;4918239;29;20218;-86
2021/07/13 09:57:03;;;;;;;11.77;7.35;;;30.10;99.90;;;;;;4918090;29;20195;-88
2021/07/13 09:59:28;;;;;;;18.10;7.85;;;30.30;99.90;;;;;;4935158;29;20184;-87
2021/07/13 10:01:54;;;;;;;11.73;7.80;;;30.40;99.90;;;;;;4935190;29;20227;-87
2021/07/13 10:04:21;;;;;;;7.22;6.45;;;30.70;99.90;;;;;;4917642;29;20215;-86
2021/07/13 10:06:48;;;;;;;13.93;7.43;;;30.90;99.90;;;;;;4935313;29;20203;-87
2021/07/13 10:09:14;;;;;;;12.82;6.78;;;31.00;99.90;;;;;;4935054;29;20203;-86
2021/07/13 10:11:41;;;;;;;9.77;6.65;;;31.10;99.90;;;;;;4911138;29;20254;-89
2021/07/13 10:14:08;;;;;;;9.85;7.63;;;31.20;99.90;;;;;;4917415;29;20645;-86
2021/07/13 10:16:34;;;;;;;13.57;7.65;;;31.30;99.50;;;;;;4934736;29;20184;-88
2021/07/13 10:19:00;;;;;;;11.77;7.95;;;31.30;98.90;;;;;;4917740;29;20183;-88
2021/07/13 10:21:26;;;;;;;15.25;7.93;;;31.30;98.70;;;;;;4934970;29;20544;-87
2021/07/13 10:23:53;;;;;;;14.85;7.30;;;31.20;99.90;;;;;;4908381;29;20220;-87
2021/07/13 10:26:49;;;;;;;16.45;7.60;;;31.30;99.90;;;;;;4918488;29;20586;-88
2021/07/13 10:29:33;;;;;;;8.75;6.95;;;31.50;97.70;;;;;;4935011;29;20188;-87
2021/07/13 10:32:00;;;;;;;8.40;6.68;;;31.60;97.60;;;;;;4903906;29;20185;-87
2021/07/13 10:34:48;;;;;;;8.20;7.38;;;31.70;97.30;;;;;;4933823;29;20192;-88
2021/07/13 10:37:34;;;;;;;10.05;7.40;;;31.70;98.10;;;;;;4923054;29;20183;-89
2021/07/13 10:40:06;;;;;;;14.13;7.28;;;31.90;99.30;;;;;;4932818;29;20638;-91
2021/07/13 10:42:40;;;;;;;14.85;6.97;;;32.00;96.40;;;;;;4925092;29;20207;-90
2021/07/13 10:45:33;;;;;;;11.05;6.15;;;32.10;94.50;;;;;;4913068;29;20219;-91
2021/07/13 10:48:08;;;;;;;10.02;6.00;;;32.10;93.00;;;;;;4918585;29;20231;-90
2021/07/13 10:50:46;;;;;;;8.75;7.05;;;32.10;93.40;;;;;;4928550;29;20258;-92
2021/07/13 10:53:23;;;;;;;7.93;6.97;;;32.30;93.50;;;;;;4935215;29;20230;-92
2021/07/13 10:55:55;;;;;;;15.48;7.07;;;32.50;94.80;;;;;;4934578;29;20191;-90
2021/07/13 10:58:26;;;;;;;14.05;7.72;;;32.40;95.40;;;;;;4929280;29;20176;-90
2021/07/13 11:00:58;;;;;;;13.60;7.28;;;32.40;95.20;;;;;;4917166;29;20606;-90
2021/07/13 11:03:27;;;;;;;12.90;7.35;;;32.50;93.30;;;;;;4910670;29;20187;-90
2021/07/13 11:06:05;;;;;;;31.05;7.03;;;32.60;93.10;;;;;;4933773;29;20564;-89
2021/07/13 11:08:49;;;;;;;9.15;6.07;;;32.70;91.00;;;;;;4917202;29;20191;-91
2021/07/13 11:11:15;;;;;;;9.90;6.32;;;32.70;90.20;;;;;;4934580;29;20168;-91
2021/07/13 11:14:02;;;;;;;8.25;6.78;;;32.80;89.30;;;;;;4933920;29;20680;-91
2021/07/13 11:16:34;;;;;;;8.77;6.25;;;32.80;90.10;;;;;;4919473;29;20180;-94
2021/07/13 11:19:02;;;;;;;8.73;6.80;;;32.80;86.30;;;;;;4942129;29;20180;-94
2021/07/13 11:21:35;;;;;;;6.65;5.97;;;32.70;86.80;;;;;;4941907;29;20197;-95
2021/07/13 11:24:03;;;;;;;8.27;6.82;;;32.70;87.90;;;;;;4943080;29;20211;-94
2021/07/13 11:26:30;;;;;;;7.75;6.47;;;32.50;87.70;;;;;;4928337;29;20308;-92
2021/07/13 11:28:58;;;;;;;10.75;6.20;;;32.40;87.70;;;;;;4917711;29;20223;-92
2021/07/13 11:31:29;;;;;;;9.77;6.82;;;32.50;85.50;;;;;;4942587;29;20224;-95
2021/07/13 11:34:07;;;;;;;9.43;5.72;;;32.70;87.20;;;;;;4942792;29;20188;-94
2021/07/13 11:36:40;;;;;;;9.52;7.30;;;32.70;83.60;;;;;;4927064;29;20192;-95
2021/07/13 11:39:09;;;;;;;7.80;7.00;;;32.80;86.80;;;;;;4921796;29;20188;-96
2021/07/13 11:41:35;;;;;;;9.65;7.35;;;32.90;87.60;;;;;;4945706;29;20187;-95
2021/07/13 11:44:04;;;;;;;11.40;7.10;;;32.90;87.00;;;;;;4944903;29;20281;-95
2021/07/13 11:46:32;;;;;;;9.13;7.32;;;33.00;86.10;;;;;;4944735;29;20550;-93
2021/07/13 11:49:11;;;;;;;11.75;7.10;;;33.00;87.20;;;;;;4941510;29;20184;-93
2021/07/13 11:51:50;;;;;;;13.73;7.32;;;32.90;83.20;;;;;;4921933;29;20578;-95
2021/07/13 11:54:17;;;;;;;10.68;6.95;;;32.50;86.60;;;;;;4920320;29;20198;-95
2021/07/13 11:56:48;;;;;;;8.13;7.10;;;32.60;86.80;;;;;;4928114;29;20188;-94
2021/07/13 11:59:15;;;;;;;8.68;7.25;;;32.60;88.00;;;;;;4936425;29;20172;-96
2021/07/13 12:01:42;;;;;;;12.07;7.32;;;32.50;88.20;;;;;;4932483;29;20303;-96
2021/07/13 12:04:10;;;;;;;13.10;7.50;;;32.50;86.60;;;;;;4933505;29;20208;-96
2021/07/13 12:06:39;;;;;;;10.50;8.15;;;32.70;86.50;;;;;;4917864;29;20199;-92
2021/07/13 12:09:11;;;;;;;13.85;7.00;;;32.80;86.20;;;;;;4911401;29;20248;-93
2021/07/13 12:11:45;;;;;;;10.40;7.18;;;32.90;88.90;;;;;;4931483;29;20185;-94
2021/07/13 12:14:16;;;;;;;9.25;6.80;;;32.90;85.50;;;;;;4918115;29;20247;-95
2021/07/13 12:16:43;;;;;;;8.70;7.18;;;30.80;85.20;;;;;;4935972;29;20187;-92
2021/07/13 12:19:14;;;;;;;9.10;7.43;;;32.30;86.90;;;;;;4938910;29;20199;-95
2021/07/13 12:21:47;;;;;;;8.80;7.82;;;32.10;86.60;;;;;;4917674;29;20176;-95
2021/07/13 12:24:17;;;;;;;9.13;7.20;;;32.10;85.70;;;;;;4920771;29;20228;-92
2021/07/13 12:26:48;;;;;;;11.70;7.40;;;32.30;87.70;;;;;;4917464;29;20195;-93
2021/07/13 12:29:20;;;;;;;8.63;7.22;;;32.50;88.70;;;;;;4933953;29;20176;-94
2021/07/13 12:31:46;;;;;;;8.13;7.28;;;32.60;86.60;;;;;;4915640;29;20176;-94
2021/07/13 12:34:30;;;;;;;13.23;8.02;;;32.70;87.40;;;;;;4917472;29;20220;-92
2021/07/13 12:37:10;;;;;;;9.75;7.20;;;32.80;85.20;;;;;;4930649;29;20176;-93
2021/07/13 12:39:38;;;;;;;9.95;7.60;;;32.90;83.70;;;;;;4931962;29;20192;-89